createdAt,value
2019-04-05T14:02:36.931Z,17.82
2019-04-05T14:05:08.233Z,19.40
2019-04-05T14:07:38.586Z,19.90
2019-04-05T14:10:12.355Z,16.87
2019-04-05T14:12:41.808Z,19.15
2019-04-05T14:15:12.192Z,18.10
2019-04-05T14:17:44.705Z,24.15
2019-04-05T14:20:18.568Z,17.05
2019-04-05T14:22:46.564Z,18.27
2019-04-05T14:25:17.426Z,17.95
2019-04-05T14:27:47.522Z,20.27
2019-04-05T14:30:17.860Z,18.95
2019-04-05T14:32:50.583Z,19.92
2019-04-05T14:35:19.018Z,17.50
2019-04-05T14:37:49.768Z,17.67
2019-04-05T14:40:20.012Z,18.95
2019-04-05T14:42:50.754Z,20.60
2019-04-05T14:45:20.492Z,14.95
2019-04-05T14:47:50.997Z,18.60
2019-04-05T14:50:22.704Z,17.70
2019-04-05T14:52:52.303Z,14.50
2019-04-05T14:55:22.716Z,15.58
2019-04-05T14:57:52.760Z,14.58
2019-04-05T15:00:23.644Z,16.52
2019-04-05T15:02:54.001Z,17.35
2019-04-05T15:05:23.708Z,16.85
2019-04-05T15:07:54.978Z,19.23
2019-04-05T15:10:26.827Z,16.02
2019-04-05T15:12:56.950Z,19.12
2019-04-05T15:15:26.273Z,20.10
2019-04-05T15:17:56.391Z,19.17
2019-04-05T15:20:26.383Z,21.00
2019-04-05T15:22:56.396Z,17.67
2019-04-05T15:25:27.040Z,18.70
2019-04-05T15:27:57.344Z,15.83
2019-04-05T15:30:27.342Z,17.05
2019-04-05T15:32:59.058Z,18.05
2019-04-05T15:35:29.144Z,16.40
2019-04-05T15:38:02.112Z,17.65
2019-04-05T15:40:31.674Z,16.10
2019-04-05T15:43:01.691Z,14.47
2019-04-05T15:45:31.702Z,16.30
2019-04-05T15:48:01.887Z,17.48
2019-04-05T15:50:33.345Z,15.68
2019-04-05T15:53:03.472Z,16.25
2019-04-05T15:55:34.351Z,15.50
2019-04-05T15:58:04.654Z,18.57
2019-04-05T16:00:44.772Z,18.77
2019-04-05T16:03:15.516Z,16.17
2019-04-05T16:05:45.950Z,17.00
2019-04-05T16:08:18.697Z,16.27
2019-04-05T16:10:48.768Z,20.55
2019-04-05T16:13:18.925Z,18.52
2019-04-05T16:15:49.447Z,18.37
2019-04-05T16:18:19.888Z,18.92
2019-04-05T16:20:50.246Z,20.57
2019-04-05T16:23:20.368Z,19.05
2019-04-05T16:25:50.768Z,19.20
2019-04-05T16:28:21.569Z,17.27
2019-04-05T16:30:51.948Z,17.67
2019-04-05T16:33:21.881Z,19.52
2019-04-05T16:35:51.224Z,19.98
2019-04-05T16:38:22.095Z,21.33
2019-04-05T16:40:51.611Z,17.85
2019-04-05T16:43:21.621Z,20.45
2019-04-05T16:45:51.725Z,16.17
2019-04-05T16:48:22.449Z,16.05
2019-04-05T16:50:52.913Z,20.12
2019-04-05T16:53:23.230Z,18.12
2019-04-05T16:55:52.969Z,17.80
2019-04-05T16:58:23.354Z,18.52
2019-04-05T17:00:53.768Z,18.10
2019-04-05T17:03:24.044Z,16.62
2019-04-05T17:05:54.510Z,18.07
2019-04-05T17:08:24.919Z,23.67
2019-04-05T17:10:54.681Z,23.25
2019-04-05T17:13:24.687Z,35.43
2019-04-05T17:15:55.233Z,180.82
2019-04-05T17:18:25.397Z,43.28
2019-04-05T17:20:55.579Z,67.62
2019-04-05T17:23:24.911Z,60.65
2019-04-05T17:25:54.560Z,21.90
2019-04-05T17:28:24.631Z,20.70
2019-04-05T17:30:55.029Z,18.67
2019-04-05T17:33:25.321Z,17.85
2019-04-05T17:35:55.464Z,20.35
2019-04-05T17:38:25.747Z,31.52
2019-04-05T17:40:55.777Z,28.20
2019-04-05T17:43:26.134Z,21.95
2019-04-05T17:45:56.571Z,22.60
2019-04-05T17:48:26.932Z,32.50
2019-04-05T17:50:56.660Z,27.05
2019-04-05T17:53:27.109Z,20.32
2019-04-05T17:55:59.028Z,21.55
2019-04-05T17:58:29.882Z,24.35
2019-04-05T18:00:59.921Z,20.70
2019-04-05T18:03:30.344Z,35.03
2019-04-05T18:06:00.370Z,169.15
2019-04-05T18:08:30.814Z,292.00
2019-04-05T18:11:01.268Z,212.27
2019-04-05T18:13:31.927Z,68.30
2019-04-05T18:16:02.297Z,35.08
2019-04-05T18:18:32.301Z,21.42
2019-04-05T18:21:01.957Z,21.82
2019-04-05T18:23:32.449Z,18.48
2019-04-05T18:26:01.765Z,20.48
2019-04-05T18:28:32.118Z,19.50
2019-04-05T18:31:02.816Z,18.27
2019-04-05T18:33:32.904Z,19.20
2019-04-05T18:36:02.937Z,17.75
2019-04-05T18:38:34.438Z,18.20
2019-04-05T18:41:04.814Z,18.10
2019-04-05T18:43:35.309Z,17.05
2019-04-05T18:46:05.793Z,17.17
2019-04-05T18:48:35.878Z,15.63
2019-04-05T18:51:06.272Z,18.55
2019-04-05T18:53:38.208Z,16.35
2019-04-05T18:56:08.874Z,17.65
2019-04-05T18:58:38.921Z,16.17
2019-04-05T19:01:09.360Z,15.63
2019-04-05T19:03:40.096Z,16.75
2019-04-05T19:06:10.525Z,15.98
2019-04-05T19:08:40.954Z,17.85
2019-04-05T19:11:11.047Z,16.82
2019-04-05T19:13:41.392Z,18.85
2019-04-05T19:16:11.089Z,16.97
2019-04-05T19:18:40.826Z,15.58
2019-04-05T19:21:10.985Z,19.85
2019-04-05T19:23:50.718Z,18.75
2019-04-05T19:26:13.086Z,18.65
2019-04-05T19:28:43.839Z,16.65
2019-04-05T19:48:57.599Z,25.25
2019-04-05T19:51:28.337Z,55.03
2019-04-05T19:54:01.281Z,88.00
2019-04-05T19:56:30.562Z,90.57
2019-04-05T19:59:00.489Z,45.05
